createdAt,value
2023-03-10T00:01:36.802Z,97.70
2023-03-10T00:04:07.321Z,96.89
2023-03-10T00:06:39.659Z,96.84
2023-03-10T00:09:12.679Z,96.28
2023-03-10T00:11:43.013Z,96.08
2023-03-10T00:14:13.338Z,94.92
2023-03-10T00:16:44.830Z,95.29
2023-03-10T00:19:15.096Z,94.90
2023-03-10T00:21:45.777Z,94.17
2023-03-10T00:24:18.824Z,93.47
2023-03-10T00:26:49.104Z,93.81
2023-03-10T00:29:20.512Z,92.94
2023-03-10T00:31:50.889Z,91.63
2023-03-10T00:34:26.181Z,92.46
2023-03-10T00:36:56.478Z,92.86
2023-03-10T00:39:29.526Z,91.01
2023-03-10T00:41:59.949Z,91.22
2023-03-10T00:44:31.066Z,91.30
2023-03-10T00:47:01.372Z,90.65
2023-03-10T00:49:32.254Z,90.37
2023-03-10T00:52:02.645Z,89.63
2023-03-10T00:54:35.861Z,89.15
2023-03-10T00:57:10.822Z,89.13
2023-03-10T00:59:50.290Z,88.73
2023-03-10T01:02:24.580Z,88.24
2023-03-10T01:04:55.003Z,86.75
2023-03-10T01:07:25.525Z,86.79
2023-03-10T01:09:58.569Z,85.91
2023-03-10T01:12:29.063Z,86.37
2023-03-10T01:14:59.477Z,84.83
2023-03-10T01:17:29.959Z,84.94
2023-03-10T01:20:01.482Z,84.70
2023-03-10T01:22:32.491Z,84.27
2023-03-10T01:25:05.823Z,83.26
2023-03-10T01:27:36.211Z,82.63
2023-03-10T01:30:07.404Z,82.44
2023-03-10T01:32:37.493Z,81.65
2023-03-10T01:35:08.927Z,81.88
2023-03-10T01:37:39.310Z,81.60
2023-03-10T01:40:18.821Z,81.28
2023-03-10T01:42:49.742Z,80.82
2023-03-10T01:46:04.935Z,80.93
2023-03-10T01:48:39.895Z,81.07
2023-03-10T01:51:13.512Z,80.80
2023-03-10T01:53:43.948Z,80.74
2023-03-10T01:56:17.489Z,80.66
2023-03-10T01:58:49.596Z,80.77
2023-03-10T02:01:21.863Z,81.10
2023-03-10T02:03:57.816Z,80.76
2023-03-10T02:06:29.878Z,81.24
2023-03-10T02:09:03.157Z,81.39
2023-03-10T02:11:37.109Z,80.61
2023-03-10T02:14:08.689Z,80.90
2023-03-10T02:16:39.648Z,82.20
2023-03-10T02:19:21.840Z,81.67
2023-03-10T02:21:59.851Z,81.83
2023-03-10T02:24:41.683Z,81.99
2023-03-10T02:27:22.943Z,82.11
2023-03-10T02:30:02.627Z,82.33
2023-03-10T02:32:41.507Z,81.85
2023-03-10T02:35:12.977Z,81.61
2023-03-10T02:37:53.378Z,81.36
2023-03-10T02:40:34.077Z,81.26
2023-03-10T02:43:21.004Z,81.12
2023-03-10T02:45:57.141Z,79.60
2023-03-10T02:48:34.488Z,79.22
2023-03-10T02:51:12.808Z,78.31
2023-03-10T02:53:44.476Z,77.92
2023-03-10T02:56:15.206Z,77.10
2023-03-10T02:58:50.091Z,76.97
2023-03-10T03:01:20.938Z,76.24
2023-03-10T03:03:52.392Z,76.51
2023-03-10T03:06:23.752Z,75.70
2023-03-10T03:08:54.381Z,75.97
2023-03-10T03:11:27.049Z,75.67
2023-03-10T03:14:00.309Z,75.37
2023-03-10T03:16:31.872Z,75.38
2023-03-10T03:19:05.986Z,75.40
2023-03-10T03:21:36.465Z,75.01
2023-03-10T03:24:07.679Z,75.32
2023-03-10T03:26:38.132Z,75.73
2023-03-10T03:29:20.224Z,75.96
2023-03-10T03:31:53.731Z,76.54
2023-03-10T03:34:28.390Z,76.88
2023-03-10T03:37:02.191Z,77.14
2023-03-10T03:39:37.342Z,77.62
2023-03-10T03:42:11.053Z,78.16
2023-03-10T03:44:51.844Z,78.52
2023-03-10T03:47:22.828Z,78.70
2023-03-10T03:49:53.243Z,79.02
2023-03-10T03:52:23.616Z,79.54
2023-03-10T03:54:54.347Z,79.60
2023-03-10T03:57:25.458Z,79.63
2023-03-10T03:59:58.617Z,79.74
2023-03-10T04:02:30.833Z,80.21
2023-03-10T04:05:11.450Z,80.26
2023-03-10T04:07:43.104Z,80.53
2023-03-10T04:10:19.732Z,80.57
2023-03-10T04:12:50.980Z,80.89
2023-03-10T04:15:27.083Z,81.33
2023-03-10T04:18:00.154Z,81.17
2023-03-10T04:20:31.475Z,81.18
2023-03-10T04:23:02.521Z,81.19
2023-03-10T04:25:36.952Z,81.51
2023-03-10T04:28:08.117Z,81.26
2023-03-10T04:30:45.352Z,81.39
2023-03-10T04:33:16.993Z,80.85
2023-03-10T04:35:51.662Z,80.94
2023-03-10T04:38:25.916Z,81.04
2023-03-10T04:40:58.721Z,80.28
2023-03-10T04:43:33.416Z,79.75
2023-03-10T04:46:08.965Z,80.24
2023-03-10T04:48:39.733Z,80.10
2023-03-10T04:51:13.143Z,80.53
2023-03-10T04:53:50.689Z,80.75
2023-03-10T04:56:21.109Z,80.91
2023-03-10T04:58:55.072Z,81.28
2023-03-10T05:01:33.039Z,81.35
2023-03-10T05:04:10.447Z,80.90
2023-03-10T05:06:40.993Z,81.42
2023-03-10T05:09:25.590Z,81.00
2023-03-10T05:11:56.217Z,80.95
2023-03-10T05:14:27.682Z,80.75
2023-03-10T05:17:00.794Z,80.95
2023-03-10T05:19:34.037Z,81.17
2023-03-10T05:22:05.677Z,81.22
2023-03-10T05:24:37.876Z,81.00
2023-03-10T05:27:08.464Z,81.28
2023-03-10T05:29:41.670Z,81.59
2023-03-10T05:32:21.422Z,81.39
2023-03-10T05:34:52.617Z,81.61
2023-03-10T05:37:23.158Z,81.27
2023-03-10T05:39:53.734Z,81.76
2023-03-10T05:42:25.494Z,82.08
2023-03-10T05:44:56.106Z,82.25
2023-03-10T05:47:29.268Z,82.84
2023-03-10T05:49:59.605Z,82.91
2023-03-10T05:52:30.290Z,83.22
2023-03-10T05:55:00.782Z,83.82
2023-03-10T05:57:31.168Z,84.15
2023-03-10T06:00:01.528Z,84.22
2023-03-10T06:02:36.182Z,84.04
2023-03-10T06:05:06.625Z,84.43
2023-03-10T06:07:38.071Z,84.48
2023-03-10T06:10:10.635Z,84.40
2023-03-10T06:12:41.417Z,84.28
2023-03-10T06:15:13.234Z,84.71
2023-03-10T06:17:46.403Z,85.07
2023-03-10T06:20:17.637Z,84.63
2023-03-10T06:22:48.212Z,83.79
2023-03-10T06:25:18.676Z,83.98
2023-03-10T06:27:49.635Z,83.95
2023-03-10T06:30:20.966Z,83.67
2023-03-10T06:32:53.965Z,83.55
2023-03-10T06:35:24.718Z,83.99
2023-03-10T06:37:55.110Z,83.14
2023-03-10T06:40:26.167Z,82.94
2023-03-10T06:42:56.262Z,83.09
2023-03-10T06:45:26.707Z,82.99
2023-03-10T06:47:59.775Z,83.12
2023-03-10T06:50:36.734Z,82.99
2023-03-10T06:53:07.176Z,83.30
2023-03-10T06:55:41.034Z,83.68
2023-03-10T06:58:11.489Z,83.13
2023-03-10T07:00:42.245Z,83.50
2023-03-10T07:03:15.547Z,83.73
2023-03-10T07:05:45.922Z,83.66
2023-03-10T07:08:16.721Z,83.81
2023-03-10T07:10:47.347Z,84.22
2023-03-10T07:13:20.089Z,84.45
2023-03-10T07:15:51.000Z,84.53
2023-03-10T07:18:27.835Z,84.13
2023-03-10T07:20:59.599Z,83.64
2023-03-10T07:23:30.094Z,83.57
2023-03-10T07:26:01.132Z,83.25
2023-03-10T07:28:31.257Z,83.01
2023-03-10T07:31:06.838Z,82.11
2023-03-10T07:33:42.786Z,82.21
2023-03-10T07:36:18.533Z,82.17
2023-03-10T07:38:49.429Z,81.85
2023-03-10T07:41:21.241Z,81.38
2023-03-10T07:43:56.280Z,81.37
2023-03-10T07:46:26.858Z,80.84
2023-03-10T07:49:04.479Z,78.42
2023-03-10T07:51:36.062Z,73.65
2023-03-10T07:54:06.819Z,72.15
2023-03-10T07:56:37.341Z,69.88
2023-03-10T07:59:07.760Z,66.29
2023-03-10T08:01:38.221Z,65.89
2023-03-10T08:04:12.749Z,65.01
2023-03-10T08:06:43.215Z,66.90
2023-03-10T08:09:13.610Z,67.76
2023-03-10T08:11:43.934Z,64.88
2023-03-10T08:14:15.586Z,63.70
2023-03-10T08:16:45.953Z,65.02
2023-03-10T08:19:19.047Z,62.81
2023-03-10T08:21:49.382Z,63.04
2023-03-10T08:24:19.755Z,66.33
2023-03-10T08:26:50.185Z,67.51
2023-03-10T08:29:20.667Z,68.77
2023-03-10T08:31:51.246Z,69.71
2023-03-10T08:34:24.217Z,69.29
2023-03-10T08:36:55.094Z,69.38
2023-03-10T08:39:27.581Z,69.35
2023-03-10T08:41:58.814Z,69.32
2023-03-10T08:44:29.162Z,69.61
2023-03-10T08:46:59.788Z,70.30
2023-03-10T08:49:32.743Z,70.86
2023-03-10T08:52:03.173Z,71.89
2023-03-10T08:54:33.828Z,71.89
2023-03-10T08:57:04.516Z,66.06
2023-03-10T08:59:34.936Z,63.17
2023-03-10T09:02:05.456Z,64.43
2023-03-10T09:04:38.441Z,66.20
2023-03-10T09:07:08.970Z,66.32
2023-03-10T09:09:39.362Z,65.23
2023-03-10T09:12:10.701Z,58.08
2023-03-10T09:14:42.092Z,56.30
2023-03-10T09:17:12.398Z,58.09
2023-03-10T09:19:45.395Z,54.10
2023-03-10T09:22:15.779Z,54.13
2023-03-10T09:24:46.177Z,51.02
2023-03-10T09:27:16.624Z,47.21
2023-03-10T09:32:37.625Z,47.04
2023-03-10T09:35:10.947Z,47.98
2023-03-10T09:37:41.351Z,48.78
2023-03-10T09:40:18.843Z,49.07
2023-03-10T09:42:51.349Z,48.01
2023-03-10T09:45:29.953Z,46.40
2023-03-10T09:48:28.722Z,46.70
2023-03-10T09:51:05.881Z,46.49
2023-03-10T09:53:54.596Z,46.47
2023-03-10T09:56:31.678Z,47.23
2023-03-10T09:59:08.311Z,47.18
2023-03-10T10:01:39.897Z,48.24
2023-03-10T10:04:14.499Z,47.54
2023-03-10T10:06:51.141Z,48.32
2023-03-10T10:09:32.839Z,49.52
2023-03-10T10:12:15.197Z,50.74
2023-03-10T10:14:56.539Z,52.08
2023-03-10T10:17:53.046Z,52.65
2023-03-10T10:20:33.582Z,52.73
2023-03-10T10:23:09.645Z,51.82
2023-03-10T10:25:42.429Z,49.88
2023-03-10T10:28:27.235Z,48.92
2023-03-10T10:31:14.458Z,48.45
2023-03-10T10:34:00.189Z,49.27
2023-03-10T10:36:33.567Z,48.16
2023-03-10T10:39:28.156Z,50.45
2023-03-10T10:42:15.604Z,51.29
2023-03-10T10:44:48.118Z,53.03
2023-03-10T10:47:33.743Z,54.35
2023-03-10T10:50:22.940Z,54.80
2023-03-10T10:52:56.610Z,54.96
2023-03-10T10:55:36.083Z,55.76
2023-03-10T10:58:10.693Z,55.92
2023-03-10T11:00:42.479Z,55.85
2023-03-10T11:03:29.670Z,55.56
2023-03-10T11:06:03.678Z,54.31
2023-03-10T11:08:40.723Z,49.92
2023-03-10T11:11:32.260Z,49.85
2023-03-10T11:14:32.437Z,49.88
2023-03-10T11:17:09.183Z,50.88
2023-03-10T11:19:59.680Z,47.21
2023-03-10T11:22:40.953Z,47.56
2023-03-10T11:25:25.712Z,47.10
2023-03-10T11:28:13.640Z,48.15
2023-03-10T11:30:51.818Z,47.53
2023-03-10T11:33:31.053Z,48.42
2023-03-10T11:36:10.910Z,46.11
2023-03-10T11:38:46.331Z,39.65
2023-03-10T11:41:20.216Z,35.87
2023-03-10T11:44:02.047Z,35.46
2023-03-10T11:46:39.592Z,34.90
2023-03-10T11:49:12.255Z,32.83
2023-03-10T11:51:48.683Z,33.39
2023-03-10T11:54:26.890Z,32.59
2023-03-10T11:56:58.726Z,31.71
2023-03-10T11:59:34.537Z,34.13
2023-03-10T12:02:14.594Z,34.83
2023-03-10T12:04:51.652Z,35.06
2023-03-10T12:07:28.550Z,35.15
2023-03-10T12:10:02.408Z,31.71
2023-03-10T12:12:36.322Z,31.39
2023-03-10T12:15:19.103Z,30.06
2023-03-10T12:17:50.750Z,29.34
2023-03-10T12:20:31.209Z,31.56
2023-03-10T12:23:03.831Z,31.96
2023-03-10T12:25:50.476Z,32.56
2023-03-10T12:28:29.413Z,30.63
2023-03-10T12:31:07.394Z,28.37
2023-03-10T12:33:56.071Z,27.39
2023-03-10T12:36:39.556Z,26.57
2023-03-10T12:39:40.434Z,26.60
2023-03-10T12:42:39.781Z,25.69
2023-03-10T12:45:28.563Z,24.43
2023-03-10T12:48:07.454Z,23.87
2023-03-10T12:50:47.590Z,24.73
2023-03-10T12:53:33.559Z,24.54
2023-03-10T12:56:25.583Z,25.38
2023-03-10T12:59:11.548Z,25.85
2023-03-10T13:01:59.684Z,26.28
2023-03-10T13:04:33.609Z,26.80
2023-03-10T13:07:05.117Z,29.43
2023-03-10T13:09:42.427Z,31.72
2023-03-10T13:12:19.541Z,34.62
2023-03-10T13:14:57.272Z,37.01
2023-03-10T13:17:32.019Z,39.27
2023-03-10T13:20:10.059Z,41.55
2023-03-10T13:22:40.625Z,44.50
2023-03-10T13:25:17.799Z,47.37
2023-03-10T13:27:51.022Z,55.69
2023-03-10T13:30:24.346Z,61.71
2023-03-10T13:33:01.540Z,65.46
2023-03-10T13:35:38.027Z,69.28
2023-03-10T13:38:16.479Z,71.22
2023-03-10T13:40:49.731Z,73.55
2023-03-10T13:43:38.932Z,77.68
2023-03-10T13:46:17.972Z,80.71
2023-03-10T13:48:50.263Z,81.90
2023-03-10T13:51:31.728Z,82.49
2023-03-10T13:54:22.399Z,82.03
2023-03-10T13:56:55.831Z,83.51
2023-03-10T13:59:29.602Z,81.04
2023-03-10T14:02:02.521Z,81.12
2023-03-10T14:04:52.621Z,78.63
2023-03-10T14:07:28.435Z,74.83
2023-03-10T14:10:17.195Z,65.11
2023-03-10T14:12:49.512Z,52.92
2023-03-10T14:15:29.109Z,49.87
2023-03-10T14:18:21.682Z,46.91
2023-03-10T14:20:52.058Z,43.97
2023-03-10T14:23:38.915Z,44.52
2023-03-10T14:26:19.534Z,45.68
2023-03-10T14:28:49.878Z,50.66
2023-03-10T14:31:25.163Z,46.72
2023-03-10T14:33:55.653Z,45.17
2023-03-10T14:36:27.414Z,45.06
2023-03-10T14:39:00.362Z,46.51
2023-03-10T14:41:31.058Z,46.68
2023-03-10T14:44:01.473Z,46.73
2023-03-10T14:46:33.041Z,47.20
2023-03-10T14:49:03.530Z,45.58
2023-03-10T14:51:36.268Z,42.95
2023-03-10T14:54:19.777Z,43.50
2023-03-10T14:56:52.594Z,48.04
2023-03-10T14:59:23.043Z,52.45
2023-03-10T15:01:53.564Z,52.62
2023-03-10T15:04:24.262Z,53.30
2023-03-10T15:06:54.647Z,55.77
2023-03-10T15:09:27.676Z,58.41
2023-03-10T15:11:59.803Z,61.00
2023-03-10T15:14:30.687Z,62.63
2023-03-10T15:17:02.731Z,63.40
2023-03-10T15:19:34.658Z,64.71
2023-03-10T15:22:05.074Z,66.80
2023-03-10T15:24:38.275Z,67.60
2023-03-10T15:27:08.627Z,67.45
2023-03-10T15:29:39.283Z,68.44
2023-03-10T15:32:10.657Z,66.74
2023-03-10T15:34:41.147Z,57.81
2023-03-10T15:37:12.685Z,52.48
2023-03-10T15:39:45.694Z,53.18
2023-03-10T15:42:16.215Z,55.45
2023-03-10T15:44:46.910Z,56.53
2023-03-10T15:47:17.332Z,54.97
2023-03-10T15:49:47.737Z,51.70
2023-03-10T15:52:18.298Z,52.46
2023-03-10T15:54:51.306Z,53.49
2023-03-10T15:57:21.781Z,55.40
2023-03-10T15:59:52.503Z,57.91
2023-03-10T16:02:22.963Z,60.52
2023-03-10T16:04:53.614Z,62.20
2023-03-10T16:07:24.206Z,64.05
2023-03-10T16:09:57.247Z,65.17
2023-03-10T16:12:27.669Z,66.12
2023-03-10T16:14:58.335Z,66.56
2023-03-10T16:17:31.330Z,66.64
2023-03-10T16:20:12.300Z,65.79
2023-03-10T16:22:45.969Z,66.65
2023-03-10T16:25:22.678Z,67.71
2023-03-10T16:27:53.068Z,68.42
2023-03-10T16:30:24.340Z,68.90
2023-03-10T16:32:54.901Z,69.43
2023-03-10T16:35:25.396Z,69.79
2023-03-10T16:37:55.825Z,70.24
2023-03-10T16:40:28.803Z,70.96
2023-03-10T16:42:59.173Z,71.73
2023-03-10T16:45:29.704Z,71.96
2023-03-10T16:48:00.198Z,72.47
2023-03-10T16:50:30.596Z,73.25
2023-03-10T16:53:01.135Z,73.69
2023-03-10T16:55:34.254Z,74.66
2023-03-10T16:58:04.679Z,75.85
2023-03-10T17:00:35.357Z,75.33
2023-03-10T17:03:05.910Z,76.19
2023-03-10T17:05:36.329Z,76.89
2023-03-10T17:08:06.699Z,77.37
2023-03-10T17:10:39.752Z,78.11
2023-03-10T17:13:10.185Z,78.83
2023-03-10T17:15:40.646Z,80.19
2023-03-10T17:18:11.002Z,81.57
2023-03-10T17:20:41.443Z,81.64
2023-03-10T17:23:11.855Z,82.73
2023-03-10T17:25:45.610Z,83.43
2023-03-10T17:28:16.113Z,84.42
2023-03-10T17:30:46.469Z,84.20
2023-03-10T17:33:17.169Z,85.13
2023-03-10T17:35:47.577Z,85.78
2023-03-10T17:38:17.985Z,86.34
2023-03-10T17:40:50.923Z,86.83
2023-03-10T17:43:33.422Z,86.86
2023-03-10T17:46:07.370Z,87.52
2023-03-10T17:48:38.690Z,87.61
2023-03-10T17:51:09.424Z,87.25
2023-03-10T17:53:39.799Z,87.65
2023-03-10T17:56:13.571Z,87.75
2023-03-10T17:58:44.064Z,87.83
2023-03-10T18:01:17.764Z,87.92
2023-03-10T18:03:48.658Z,87.38
2023-03-10T18:06:22.589Z,86.99
2023-03-10T18:08:56.260Z,86.74
2023-03-10T18:11:31.466Z,86.26
2023-03-10T18:14:03.757Z,85.93
2023-03-10T18:16:37.742Z,85.39
2023-03-10T18:19:10.550Z,85.97
2023-03-10T18:21:41.793Z,85.75
2023-03-10T18:24:14.884Z,85.42
2023-03-10T18:26:47.887Z,85.67
2023-03-10T18:29:18.406Z,85.32
2023-03-10T18:31:48.957Z,84.76
2023-03-10T18:34:20.294Z,85.13
2023-03-10T18:36:51.770Z,85.45
2023-03-10T18:39:22.153Z,87.11
2023-03-10T18:41:56.969Z,89.69
2023-03-10T18:44:27.332Z,91.24
2023-03-10T18:47:00.575Z,92.51
2023-03-10T18:49:31.160Z,93.41
2023-03-10T18:52:02.430Z,96.50
2023-03-10T18:54:33.164Z,97.41
2023-03-10T18:57:06.761Z,100.00
2023-03-10T18:59:37.406Z,100.00
2023-03-10T19:02:08.174Z,100.00
2023-03-10T19:04:43.026Z,100.00
2023-03-10T19:07:14.813Z,100.00
2023-03-10T19:09:45.239Z,100.00
2023-03-10T19:12:18.267Z,100.00
2023-03-10T19:14:48.542Z,100.00
2023-03-10T19:17:18.856Z,100.00
2023-03-10T19:19:49.324Z,100.00
2023-03-10T19:22:19.707Z,100.00
2023-03-10T19:24:50.032Z,100.00
2023-03-10T19:27:23.264Z,100.00
2023-03-10T19:29:55.286Z,100.00
2023-03-10T19:32:25.827Z,100.00
2023-03-10T19:34:56.520Z,100.00
2023-03-10T19:37:26.947Z,100.00
2023-03-10T19:39:57.333Z,100.00
2023-03-10T19:42:30.322Z,100.00
2023-03-10T19:45:00.687Z,100.00
2023-03-10T19:47:33.895Z,100.00
2023-03-10T19:50:04.916Z,100.00
2023-03-10T19:52:36.137Z,100.00
2023-03-10T19:55:08.662Z,100.00
2023-03-10T19:57:42.752Z,100.00
2023-03-10T20:00:17.402Z,100.00
2023-03-10T20:02:48.104Z,100.00
2023-03-10T20:05:18.874Z,100.00
2023-03-10T20:07:49.557Z,100.00
2023-03-10T20:10:21.395Z,100.00
2023-03-10T20:12:54.390Z,100.00
2023-03-10T20:15:24.987Z,100.00
2023-03-10T20:17:56.026Z,100.00
2023-03-10T20:20:26.616Z,100.00
2023-03-10T20:22:57.096Z,100.00
2023-03-10T20:25:29.176Z,100.00
2023-03-10T20:28:04.685Z,100.00
2023-03-10T20:30:37.423Z,100.00
2023-03-10T20:33:08.028Z,100.00
2023-03-10T20:35:39.235Z,100.00
2023-03-10T20:38:09.729Z,100.00
2023-03-10T20:40:40.198Z,100.00
2023-03-10T20:43:13.711Z,100.00
2023-03-10T20:45:44.321Z,100.00
2023-03-10T20:48:14.851Z,100.00
2023-03-10T20:50:45.523Z,100.00
2023-03-10T20:53:15.980Z,100.00
2023-03-10T20:55:46.342Z,100.00
2023-03-10T20:58:19.399Z,100.00
2023-03-10T21:00:51.099Z,100.00
2023-03-10T21:03:22.062Z,100.00
2023-03-10T21:05:52.538Z,100.00
2023-03-10T21:08:23.005Z,100.00
2023-03-10T21:10:53.410Z,100.00
2023-03-10T21:13:26.421Z,100.00
2023-03-10T21:15:56.696Z,100.00
2023-03-10T21:18:27.094Z,100.00
2023-03-10T21:20:57.381Z,100.00
2023-03-10T21:23:27.841Z,100.00
2023-03-10T21:25:58.440Z,100.00
2023-03-10T21:28:31.519Z,100.00
2023-03-10T21:31:01.977Z,100.00
2023-03-10T21:33:32.355Z,100.00
2023-03-10T21:36:02.872Z,100.00
2023-03-10T21:38:33.273Z,100.00
2023-03-10T21:41:03.634Z,100.00
2023-03-10T21:43:36.552Z,100.00
2023-03-10T21:46:07.399Z,100.00
2023-03-10T21:48:37.921Z,100.00
2023-03-10T21:51:09.949Z,100.00
2023-03-10T21:53:40.356Z,100.00
2023-03-10T21:56:11.230Z,100.00
2023-03-10T21:58:44.198Z,100.00
2023-03-10T22:01:17.218Z,100.00
2023-03-10T22:03:47.627Z,100.00
2023-03-10T22:06:18.726Z,100.00
2023-03-10T22:08:49.181Z,100.00
2023-03-10T22:11:20.082Z,100.00
2023-03-10T22:13:53.173Z,100.00
2023-03-10T22:16:26.588Z,100.00
2023-03-10T22:18:56.926Z,100.00
2023-03-10T22:21:27.840Z,100.00
2023-03-10T22:23:59.994Z,100.00
2023-03-10T22:26:30.568Z,100.00
2023-03-10T22:29:03.782Z,100.00
2023-03-10T22:31:34.182Z,100.00
2023-03-10T22:34:04.663Z,100.00
2023-03-10T22:36:35.259Z,100.00
2023-03-10T22:39:06.370Z,100.00
2023-03-10T22:41:38.711Z,100.00
2023-03-10T22:44:11.951Z,100.00
2023-03-10T22:46:42.511Z,100.00
2023-03-10T22:49:12.999Z,100.00
2023-03-10T22:51:44.349Z,100.00
2023-03-10T22:54:14.661Z,100.00
2023-03-10T22:56:45.049Z,100.00
2023-03-10T22:59:18.209Z,100.00
2023-03-10T23:01:48.486Z,100.00
2023-03-10T23:04:19.651Z,100.00
2023-03-10T23:06:49.757Z,100.00
2023-03-10T23:09:20.045Z,100.00
2023-03-10T23:11:50.434Z,100.00
2023-03-10T23:14:23.299Z,100.00
2023-03-10T23:16:53.636Z,100.00
2023-03-10T23:19:23.950Z,100.00
2023-03-10T23:21:54.315Z,100.00
2023-03-10T23:24:24.743Z,100.00
2023-03-10T23:26:55.188Z,100.00
2023-03-10T23:29:28.767Z,100.00
2023-03-10T23:31:59.309Z,100.00
2023-03-10T23:34:29.737Z,100.00
2023-03-10T23:37:00.180Z,100.00
2023-03-10T23:39:30.521Z,100.00
2023-03-10T23:42:00.854Z,100.00
2023-03-10T23:44:33.708Z,100.00
2023-03-10T23:47:04.140Z,100.00
2023-03-10T23:49:34.386Z,100.00
2023-03-10T23:52:04.704Z,100.00
2023-03-10T23:54:35.009Z,100.00
2023-03-10T23:57:05.400Z,100.00
2023-03-10T23:59:38.539Z,100.00
